Dundalk Sparrows Point, Maryland
Current Conditions -  °F | °C
As of 10:45 AM on Thursday 29 Jan 2015 (Local Time) from KMTN Reporting Station
Broken Clouds Broken Clouds  
Wind Chill: 23°   Ceiling: 15000
Heat Index: 30°   Visibility: 10mi
Dew Point: 18°   Wind: 7mph
Humidity: 60%   Direction: 120°ESE
Pressure: 30.32"   Gusts: NA
Location:  39.2639°N, 76.497°W
Report Text: KMTN 291545Z 12006KT 10SM BKN150 M01/M08 A3032
Loading
Personal Weather Stations






























Interactive Weather Map New forecast layout! Learn more

10-Day Weather Forecast

Advertisements
Track Severe Weather on mobile